createdAt,value
2022-09-27T00:01:09.119Z,12.00
2022-09-27T00:03:36.759Z,12.00
2022-09-27T00:06:09.093Z,12.00
2022-09-27T00:08:37.198Z,12.00
2022-09-27T00:11:06.897Z,12.00
2022-09-27T00:13:34.284Z,12.00
2022-09-27T00:16:05.492Z,12.00
2022-09-27T00:18:33.620Z,12.10
2022-09-27T00:21:08.866Z,12.10
2022-09-27T00:23:36.252Z,12.10
2022-09-27T00:26:03.728Z,12.10
2022-09-27T00:28:31.112Z,12.10
2022-09-27T00:30:59.708Z,12.10
2022-09-27T00:33:27.590Z,12.10
2022-09-27T00:35:54.885Z,12.10
2022-09-27T00:38:21.723Z,12.10
2022-09-27T00:40:48.732Z,12.10
2022-09-27T00:43:24.405Z,12.20
2022-09-27T00:45:59.274Z,12.20
2022-09-27T00:48:31.512Z,12.10
2022-09-27T00:51:02.727Z,12.10
2022-09-27T00:53:39.492Z,12.10
2022-09-27T00:56:10.873Z,12.20
2022-09-27T00:58:43.248Z,12.20
2022-09-27T01:01:14.141Z,12.10
2022-09-27T01:03:44.879Z,12.10
2022-09-27T01:06:12.556Z,12.20
2022-09-27T01:08:39.429Z,12.20
2022-09-27T01:11:28.360Z,12.20
2022-09-27T01:14:19.999Z,12.20
2022-09-27T01:17:09.807Z,12.30
2022-09-27T01:19:39.569Z,12.30
2022-09-27T01:22:18.480Z,12.30
2022-09-27T01:24:58.353Z,12.30
2022-09-27T01:27:51.268Z,12.30
2022-09-27T01:30:25.553Z,12.30
2022-09-27T01:33:14.748Z,12.30
2022-09-27T01:36:06.664Z,12.30
2022-09-27T01:38:57.869Z,12.20
2022-09-27T01:41:33.522Z,12.20
2022-09-27T01:44:09.088Z,12.30
2022-09-27T01:46:45.189Z,12.30
2022-09-27T01:49:24.663Z,12.20
2022-09-27T01:51:56.637Z,12.30
2022-09-27T01:54:30.928Z,12.30
2022-09-27T01:57:00.605Z,12.20
2022-09-27T01:59:32.933Z,12.20
2022-09-27T02:02:07.718Z,12.20
2022-09-27T02:04:39.767Z,12.20
2022-09-27T02:07:15.968Z,12.20
2022-09-27T02:09:54.028Z,12.20
2022-09-27T02:12:28.054Z,12.10
2022-09-27T02:15:13.584Z,12.10
2022-09-27T02:17:44.858Z,12.10
2022-09-27T02:20:24.926Z,12.00
2022-09-27T02:23:02.980Z,12.00
2022-09-27T02:25:43.185Z,12.00
2022-09-27T02:28:45.197Z,12.00
2022-09-27T02:31:12.453Z,12.00
2022-09-27T02:34:03.479Z,11.90
2022-09-27T02:36:30.863Z,12.00
2022-09-27T02:38:57.717Z,11.90
2022-09-27T02:41:24.504Z,11.90
2022-09-27T02:44:02.469Z,11.90
2022-09-27T02:46:50.868Z,11.90
2022-09-27T02:49:47.589Z,11.90
2022-09-27T02:52:52.172Z,11.90
2022-09-27T02:55:37.466Z,11.90
2022-09-27T02:58:37.440Z,11.90
2022-09-27T03:01:24.605Z,11.90
2022-09-27T03:04:04.640Z,11.90
2022-09-27T03:06:32.973Z,11.90
2022-09-27T03:08:59.876Z,11.90
2022-09-27T03:11:26.795Z,11.90
2022-09-27T03:14:07.800Z,11.90
2022-09-27T03:16:35.649Z,11.80
2022-09-27T03:19:02.529Z,11.80
2022-09-27T03:21:29.361Z,11.80
2022-09-27T03:23:56.171Z,11.80
2022-09-27T03:26:22.888Z,11.80
2022-09-27T03:28:49.704Z,11.80
2022-09-27T03:31:16.556Z,11.80
2022-09-27T03:33:43.371Z,11.70
2022-09-27T03:36:10.329Z,11.80
2022-09-27T03:38:37.087Z,11.80
2022-09-27T03:41:04.912Z,11.70
2022-09-27T03:43:31.723Z,11.70
2022-09-27T03:45:59.013Z,11.80
2022-09-27T03:48:28.090Z,11.70
2022-09-27T03:50:55.167Z,11.70
2022-09-27T03:53:22.286Z,11.70
2022-09-27T03:55:49.187Z,11.70
2022-09-27T03:58:16.497Z,11.60
2022-09-27T04:00:44.110Z,11.70
2022-09-27T04:03:12.127Z,11.60
2022-09-27T04:05:39.071Z,11.70
2022-09-27T04:08:11.051Z,11.60
2022-09-27T04:10:38.314Z,11.60
2022-09-27T04:13:05.662Z,11.50
2022-09-27T04:15:32.636Z,11.60
2022-09-27T04:17:59.426Z,11.50
2022-09-27T04:20:26.236Z,11.50
2022-09-27T04:22:53.012Z,11.50
2022-09-27T04:25:20.022Z,11.50
2022-09-27T04:27:48.338Z,11.40
2022-09-27T04:30:16.022Z,11.40
2022-09-27T04:32:44.361Z,11.40
2022-09-27T04:35:33.263Z,11.40
2022-09-27T04:38:00.676Z,11.30
2022-09-27T04:40:27.536Z,11.30
2022-09-27T04:42:54.407Z,11.30
2022-09-27T04:45:21.408Z,11.30
2022-09-27T04:47:50.309Z,11.40
2022-09-27T04:50:18.658Z,11.40
2022-09-27T04:52:49.657Z,11.30
2022-09-27T04:55:16.509Z,11.30
2022-09-27T04:57:43.271Z,11.30
2022-09-27T05:00:10.796Z,11.30
2022-09-27T05:02:37.778Z,11.20
2022-09-27T05:05:06.749Z,11.20
2022-09-27T05:07:35.072Z,11.20
2022-09-27T05:10:01.939Z,11.20
2022-09-27T05:12:28.726Z,11.20
2022-09-27T05:14:55.896Z,11.20
2022-09-27T05:17:23.537Z,11.10
2022-09-27T05:19:50.877Z,11.10
2022-09-27T05:22:17.700Z,11.10
2022-09-27T05:24:44.498Z,11.20
2022-09-27T05:27:18.440Z,11.20
2022-09-27T05:29:45.605Z,11.20
2022-09-27T05:32:13.151Z,11.10
2022-09-27T05:34:39.922Z,11.10
2022-09-27T05:37:06.856Z,11.10
2022-09-27T05:39:33.764Z,11.00
2022-09-27T05:42:00.664Z,11.10
2022-09-27T05:44:27.519Z,11.10
2022-09-27T05:46:54.320Z,11.00
2022-09-27T05:49:21.190Z,11.20
2022-09-27T05:51:47.997Z,11.10
2022-09-27T05:54:14.896Z,11.10
2022-09-27T05:56:41.720Z,11.10
2022-09-27T05:59:08.585Z,11.20
2022-09-27T06:01:36.287Z,11.10
2022-09-27T06:04:04.779Z,11.10
2022-09-27T06:06:34.240Z,11.10
2022-09-27T06:09:01.479Z,11.10
2022-09-27T06:11:28.787Z,11.10
2022-09-27T06:13:56.115Z,11.10
2022-09-27T06:16:22.951Z,11.10
2022-09-27T06:18:49.825Z,11.20
2022-09-27T06:21:16.636Z,11.10
2022-09-27T06:23:43.380Z,11.10
2022-09-27T06:26:10.971Z,11.20
2022-09-27T06:28:37.797Z,11.10
2022-09-27T06:31:11.953Z,11.10
2022-09-27T06:33:38.895Z,11.10
2022-09-27T06:36:07.590Z,11.10
2022-09-27T06:38:34.907Z,11.00
2022-09-27T06:41:03.491Z,11.00
2022-09-27T06:43:31.269Z,11.00
2022-09-27T06:46:05.344Z,10.90
2022-09-27T06:48:32.952Z,10.90
2022-09-27T06:51:00.282Z,10.80
2022-09-27T06:53:29.501Z,10.90
2022-09-27T06:56:01.106Z,10.90
2022-09-27T06:58:47.576Z,10.90
2022-09-27T07:01:14.809Z,11.00
2022-09-27T07:03:43.227Z,11.00
2022-09-27T07:06:22.901Z,11.00
2022-09-27T07:08:53.875Z,11.20
2022-09-27T07:11:23.606Z,11.30
2022-09-27T07:13:51.964Z,11.20
2022-09-27T07:16:19.200Z,11.40
2022-09-27T07:18:49.691Z,11.50
2022-09-27T07:21:16.557Z,11.60
2022-09-27T07:23:43.603Z,11.60
2022-09-27T07:26:11.207Z,11.50
2022-09-27T07:28:39.479Z,11.40
2022-09-27T07:31:06.626Z,11.30
2022-09-27T07:33:33.633Z,11.20
2022-09-27T07:36:00.834Z,11.20
2022-09-27T07:38:27.900Z,11.30
2022-09-27T07:40:54.825Z,11.30
2022-09-27T07:43:21.739Z,11.30
2022-09-27T07:45:48.638Z,11.30
2022-09-27T07:48:16.647Z,11.40
2022-09-27T07:50:43.713Z,11.80
2022-09-27T07:53:13.395Z,11.60
2022-09-27T07:55:41.185Z,11.50
2022-09-27T07:58:11.158Z,11.40
2022-09-27T08:00:40.933Z,11.40
2022-09-27T08:03:16.063Z,11.40
2022-09-27T08:05:44.861Z,11.40
2022-09-27T08:08:11.806Z,11.50
2022-09-27T08:10:42.221Z,11.50
2022-09-27T08:13:09.901Z,11.40
2022-09-27T08:15:38.800Z,11.60
2022-09-27T08:18:07.259Z,11.70
2022-09-27T08:20:34.029Z,11.80
2022-09-27T08:23:01.019Z,12.10
2022-09-27T08:25:28.428Z,12.30
2022-09-27T08:27:57.310Z,12.60
2022-09-27T08:30:24.767Z,12.50
2022-09-27T08:32:59.525Z,12.50
2022-09-27T08:35:29.262Z,12.20
2022-09-27T08:38:00.622Z,12.00
2022-09-27T08:40:39.315Z,11.90
2022-09-27T08:43:22.934Z,11.90
2022-09-27T08:46:19.597Z,12.40
2022-09-27T08:48:51.894Z,12.70
2022-09-27T08:51:30.342Z,12.50
2022-09-27T08:54:11.794Z,12.60
2022-09-27T08:56:38.948Z,12.50
2022-09-27T08:59:21.800Z,12.60
2022-09-27T09:01:50.403Z,12.40
2022-09-27T09:04:39.911Z,12.50
2022-09-27T09:07:25.332Z,13.10
2022-09-27T09:10:52.662Z,13.00
2022-09-27T09:13:45.737Z,13.10
2022-09-27T09:16:29.544Z,13.10
2022-09-27T09:19:19.927Z,12.70
2022-09-27T09:21:49.554Z,12.90
2022-09-27T09:24:19.557Z,13.10
2022-09-27T09:27:25.172Z,13.10
2022-09-27T09:30:13.615Z,13.10
2022-09-27T09:32:40.432Z,13.00
2022-09-27T09:35:13.940Z,13.00
2022-09-27T09:37:46.446Z,12.90
2022-09-27T09:40:28.075Z,12.80
2022-09-27T09:43:24.093Z,12.70
2022-09-27T09:46:02.330Z,12.80
2022-09-27T09:48:39.437Z,12.80
2022-09-27T09:51:10.999Z,13.00
2022-09-27T09:53:50.771Z,12.90
2022-09-27T09:56:23.225Z,13.00
2022-09-27T09:59:25.794Z,13.10
2022-09-27T10:01:56.120Z,13.10
2022-09-27T10:04:28.811Z,13.20
2022-09-27T10:06:59.406Z,13.30
2022-09-27T10:09:28.758Z,13.40
2022-09-27T10:11:55.955Z,13.40
2022-09-27T10:14:23.245Z,13.70
2022-09-27T10:16:59.301Z,14.10
2022-09-27T10:19:30.480Z,14.20
2022-09-27T10:22:28.621Z,13.80
2022-09-27T10:24:57.544Z,13.90
2022-09-27T10:27:27.969Z,13.50
2022-09-27T10:29:59.635Z,13.00
2022-09-27T10:32:33.430Z,12.40
2022-09-27T10:35:23.559Z,11.60
2022-09-27T10:37:51.296Z,11.20
2022-09-27T10:40:36.284Z,11.10
2022-09-27T10:43:03.370Z,11.10
2022-09-27T10:45:31.489Z,10.90
2022-09-27T10:48:00.730Z,10.90
2022-09-27T10:50:50.284Z,10.80
2022-09-27T10:53:21.762Z,10.80
2022-09-27T10:55:51.185Z,10.70
2022-09-27T10:58:28.348Z,10.70
2022-09-27T11:01:04.209Z,10.70
2022-09-27T11:03:34.161Z,10.70
2022-09-27T11:06:18.099Z,10.70
2022-09-27T11:08:48.762Z,10.80
2022-09-27T11:11:16.392Z,10.80
2022-09-27T11:13:57.511Z,11.20
2022-09-27T11:16:52.117Z,11.80
2022-09-27T11:19:40.944Z,12.10
2022-09-27T11:22:24.791Z,12.20
2022-09-27T11:25:13.085Z,12.40
2022-09-27T11:28:16.861Z,12.40
2022-09-27T11:30:52.870Z,12.50
2022-09-27T11:33:44.259Z,12.50
2022-09-27T11:36:13.822Z,12.90
2022-09-27T11:39:07.560Z,13.20
2022-09-27T11:42:02.740Z,13.50
2022-09-27T11:45:34.240Z,13.30
2022-09-27T11:48:12.929Z,13.30
2022-09-27T11:51:05.268Z,13.30
2022-09-27T11:54:10.454Z,13.30
2022-09-27T11:57:28.786Z,13.20
2022-09-27T12:00:10.556Z,12.90
2022-09-27T12:02:59.828Z,12.70
2022-09-27T12:05:58.780Z,12.50
2022-09-27T12:08:51.348Z,12.70
2022-09-27T12:11:42.839Z,12.50
2022-09-27T12:14:39.087Z,12.60
2022-09-27T12:17:11.597Z,12.50
2022-09-27T12:19:42.818Z,12.40
2022-09-27T12:22:14.447Z,12.30
2022-09-27T12:24:42.370Z,12.40
2022-09-27T12:27:17.053Z,12.40
2022-09-27T12:29:45.249Z,12.50
2022-09-27T12:32:22.472Z,12.70
2022-09-27T12:35:02.257Z,12.60
2022-09-27T12:37:35.345Z,12.80
2022-09-27T12:40:08.170Z,12.80
2022-09-27T12:42:50.414Z,13.00
2022-09-27T12:45:24.101Z,13.10
2022-09-27T12:48:32.425Z,13.10
2022-09-27T12:51:12.297Z,13.40
2022-09-27T12:54:13.514Z,13.90
2022-09-27T12:57:11.132Z,13.70
2022-09-27T12:59:50.041Z,13.30
2022-09-27T13:03:03.850Z,12.70
2022-09-27T13:05:56.995Z,12.60
2022-09-27T13:08:55.524Z,12.80
2022-09-27T13:11:29.273Z,12.40
2022-09-27T13:14:01.720Z,12.60
2022-09-27T13:16:28.908Z,12.70
2022-09-27T13:19:01.812Z,12.60
2022-09-27T13:21:47.440Z,12.80
2022-09-27T13:24:47.324Z,13.00
2022-09-27T13:27:25.725Z,13.10
2022-09-27T13:29:52.999Z,13.40
2022-09-27T13:32:26.233Z,13.40
2022-09-27T13:34:54.497Z,13.40
2022-09-27T13:38:02.672Z,13.10
2022-09-27T13:40:35.919Z,12.90
2022-09-27T13:43:10.564Z,12.10
2022-09-27T13:45:41.734Z,11.80
2022-09-27T13:48:24.421Z,11.80
2022-09-27T13:51:26.457Z,11.50
2022-09-27T13:54:10.089Z,11.30
2022-09-27T13:56:38.269Z,11.20
2022-09-27T13:59:12.344Z,11.10
2022-09-27T14:02:07.253Z,11.20
2022-09-27T14:04:50.035Z,11.30
2022-09-27T14:07:20.386Z,11.30
2022-09-27T14:09:52.815Z,11.40
2022-09-27T14:12:23.455Z,11.50
2022-09-27T14:14:51.678Z,11.70
2022-09-27T14:17:18.729Z,11.80
2022-09-27T14:19:46.393Z,11.80
2022-09-27T14:22:18.540Z,11.90
2022-09-27T14:24:53.873Z,12.00
2022-09-27T14:27:28.426Z,12.00
2022-09-27T14:30:03.926Z,12.10
2022-09-27T14:32:33.963Z,12.00
2022-09-27T14:35:33.082Z,12.00
2022-09-27T14:38:15.806Z,12.00
2022-09-27T14:40:54.305Z,12.20
2022-09-27T14:43:22.534Z,12.30
2022-09-27T14:45:52.755Z,12.30
2022-09-27T14:48:23.725Z,12.30
2022-09-27T14:51:20.937Z,12.30
2022-09-27T14:53:57.096Z,12.30
2022-09-27T14:56:33.565Z,12.10
2022-09-27T14:59:30.980Z,12.10
2022-09-27T15:02:03.474Z,11.80
2022-09-27T15:04:32.272Z,11.70
2022-09-27T15:07:02.198Z,11.60
2022-09-27T15:09:33.123Z,11.50
2022-09-27T15:12:01.215Z,11.40
2022-09-27T15:14:33.097Z,11.40
2022-09-27T15:17:05.999Z,11.30
2022-09-27T15:19:34.620Z,11.10
2022-09-27T15:22:34.847Z,11.10
2022-09-27T15:25:34.449Z,11.00
2022-09-27T15:28:18.383Z,11.10
2022-09-27T15:30:58.962Z,11.00
2022-09-27T15:33:34.708Z,11.10
2022-09-27T15:36:13.185Z,11.10
2022-09-27T15:38:47.492Z,11.00
2022-09-27T15:41:17.028Z,11.00
2022-09-27T15:43:52.483Z,11.00
2022-09-27T15:46:22.592Z,11.00
2022-09-27T15:49:20.748Z,10.90
2022-09-27T15:51:52.562Z,10.90
2022-09-27T15:54:21.025Z,10.90
2022-09-27T15:56:55.594Z,10.80
2022-09-27T15:59:27.966Z,11.00
2022-09-27T16:02:03.033Z,10.90
2022-09-27T16:04:32.616Z,11.00
2022-09-27T16:07:02.463Z,10.90
2022-09-27T16:09:29.672Z,10.90
2022-09-27T16:11:56.685Z,10.90
2022-09-27T16:14:23.505Z,10.80
2022-09-27T16:16:53.023Z,10.90
2022-09-27T16:19:20.040Z,10.90
2022-09-27T16:21:48.514Z,10.80
2022-09-27T16:24:17.220Z,10.80
2022-09-27T16:26:44.393Z,10.90
2022-09-27T16:29:14.041Z,10.90
2022-09-27T16:31:41.856Z,10.80
2022-09-27T16:34:10.068Z,10.90
2022-09-27T16:36:37.515Z,10.80
2022-09-27T16:39:05.917Z,10.80
2022-09-27T16:41:35.792Z,10.90
2022-09-27T16:44:10.974Z,10.90
2022-09-27T16:46:47.455Z,10.90
2022-09-27T16:49:33.335Z,10.90
2022-09-27T16:52:00.578Z,11.00
2022-09-27T16:54:31.436Z,11.10
2022-09-27T16:56:59.492Z,11.00
2022-09-27T16:59:27.159Z,11.00
2022-09-27T17:01:58.131Z,11.00
2022-09-27T17:04:28.133Z,11.10
2022-09-27T17:06:56.269Z,10.90
2022-09-27T17:09:23.553Z,10.80
2022-09-27T17:11:50.930Z,10.80
2022-09-27T17:14:18.686Z,10.90
2022-09-27T17:16:47.029Z,10.80
2022-09-27T17:19:15.062Z,10.70
2022-09-27T17:21:43.521Z,10.60
2022-09-27T17:24:11.233Z,10.60
2022-09-27T17:26:38.430Z,10.50
2022-09-27T17:29:05.347Z,10.50
2022-09-27T17:31:34.807Z,10.40
2022-09-27T17:34:02.654Z,10.40
2022-09-27T17:36:37.429Z,10.40
2022-09-27T17:39:05.426Z,10.40
2022-09-27T17:41:39.641Z,10.40
2022-09-27T17:44:07.400Z,10.30
2022-09-27T17:46:36.776Z,10.30
2022-09-27T17:49:22.704Z,10.40
2022-09-27T17:51:52.133Z,10.40
2022-09-27T17:54:20.640Z,10.40
2022-09-27T17:56:48.222Z,10.40
2022-09-27T17:59:16.072Z,10.40
2022-09-27T18:01:44.542Z,10.40
2022-09-27T18:04:14.693Z,10.40
2022-09-27T18:06:44.100Z,10.30
2022-09-27T18:09:12.978Z,10.40
2022-09-27T18:11:41.108Z,10.40
2022-09-27T18:14:10.204Z,10.30
2022-09-27T18:16:41.034Z,10.30
2022-09-27T18:19:10.590Z,10.30
2022-09-27T18:21:37.695Z,10.30
2022-09-27T18:24:06.126Z,10.30
2022-09-27T18:26:36.494Z,10.30
2022-09-27T18:29:07.903Z,10.30
2022-09-27T18:31:34.959Z,10.30
2022-09-27T18:34:03.060Z,10.20
2022-09-27T18:36:30.054Z,10.00
2022-09-27T18:38:58.807Z,10.00
2022-09-27T18:41:28.599Z,10.00
2022-09-27T18:43:58.861Z,9.90
2022-09-27T18:46:35.519Z,9.90
2022-09-27T18:49:10.422Z,9.90
2022-09-27T18:51:41.158Z,9.80
2022-09-27T18:54:18.340Z,9.80
2022-09-27T18:56:45.977Z,9.80
2022-09-27T18:59:13.886Z,9.70
2022-09-27T19:01:45.025Z,9.70
2022-09-27T19:04:19.245Z,9.70
2022-09-27T19:06:48.436Z,9.60
2022-09-27T19:09:15.281Z,9.60
2022-09-27T19:11:42.199Z,9.60
2022-09-27T19:14:16.658Z,9.60
2022-09-27T19:16:44.843Z,9.60
2022-09-27T19:19:11.664Z,9.50
2022-09-27T19:21:38.533Z,9.50
2022-09-27T19:24:05.453Z,9.50
2022-09-27T19:26:32.252Z,9.50
2022-09-27T19:28:59.236Z,9.50
2022-09-27T19:31:27.229Z,9.50
2022-09-27T19:33:59.732Z,9.50
2022-09-27T19:36:28.189Z,9.50
2022-09-27T19:38:58.402Z,9.50
2022-09-27T19:41:26.184Z,9.50
2022-09-27T19:43:54.127Z,9.50
2022-09-27T19:46:22.300Z,9.50
2022-09-27T19:48:50.389Z,9.50
2022-09-27T19:51:22.700Z,9.60
2022-09-27T19:53:51.180Z,9.60
2022-09-27T19:56:19.125Z,9.50
2022-09-27T19:58:46.109Z,9.50
2022-09-27T20:01:16.007Z,9.50
2022-09-27T20:03:44.623Z,9.50
2022-09-27T20:06:15.059Z,9.50
2022-09-27T20:08:43.217Z,9.50
2022-09-27T20:11:12.644Z,9.60
2022-09-27T20:13:40.428Z,9.50
2022-09-27T20:16:10.099Z,9.50
2022-09-27T20:18:47.324Z,9.50
2022-09-27T20:21:15.245Z,9.50
2022-09-27T20:23:43.553Z,9.50
2022-09-27T20:26:16.495Z,9.40
2022-09-27T20:28:45.649Z,9.50
2022-09-27T20:31:14.847Z,9.50
2022-09-27T20:33:42.113Z,9.40
2022-09-27T20:36:31.210Z,9.40
2022-09-27T20:39:03.838Z,9.40
2022-09-27T20:41:42.219Z,9.30
2022-09-27T20:44:17.265Z,9.30
2022-09-27T20:46:45.112Z,9.20
2022-09-27T20:49:17.042Z,9.10
2022-09-27T20:51:48.316Z,9.10
2022-09-27T20:54:15.472Z,9.20
2022-09-27T20:56:47.286Z,9.10
2022-09-27T20:59:17.763Z,9.10
2022-09-27T21:01:46.903Z,9.00
2022-09-27T21:04:17.215Z,9.00
2022-09-27T21:06:45.598Z,8.90
2022-09-27T21:09:20.342Z,9.00
2022-09-27T21:11:48.748Z,9.00
2022-09-27T21:14:15.972Z,8.90
2022-09-27T21:16:43.103Z,8.90
2022-09-27T21:19:10.698Z,8.90
2022-09-27T21:21:37.532Z,8.90
2022-09-27T21:24:04.687Z,8.90
2022-09-27T21:26:33.605Z,8.90
2022-09-27T21:29:04.884Z,8.80
2022-09-27T21:31:32.528Z,8.80
2022-09-27T21:34:03.374Z,8.90
2022-09-27T21:36:33.075Z,8.80
2022-09-27T21:39:00.696Z,8.70
2022-09-27T21:41:28.191Z,8.80
2022-09-27T21:43:55.475Z,8.80
2022-09-27T21:46:24.781Z,8.90
2022-09-27T21:49:04.516Z,8.90
2022-09-27T21:51:38.149Z,9.00
2022-09-27T21:54:07.401Z,8.90
2022-09-27T21:56:37.709Z,9.00
2022-09-27T21:59:06.289Z,9.00
2022-09-27T22:01:34.306Z,9.00
2022-09-27T22:04:02.458Z,8.90
2022-09-27T22:06:33.668Z,8.90
2022-09-27T22:09:01.439Z,8.90
2022-09-27T22:11:31.682Z,9.10
2022-09-27T22:13:59.305Z,9.10
2022-09-27T22:16:27.476Z,9.10
2022-09-27T22:18:56.201Z,9.20
2022-09-27T22:21:31.898Z,9.20
2022-09-27T22:24:06.534Z,9.20
2022-09-27T22:26:37.090Z,9.20
2022-09-27T22:29:03.868Z,9.30
2022-09-27T22:31:30.717Z,9.20
2022-09-27T22:34:01.330Z,9.20
2022-09-27T22:36:28.739Z,9.20
2022-09-27T22:38:55.971Z,9.20
2022-09-27T22:41:23.812Z,9.20
2022-09-27T22:43:51.804Z,9.20
2022-09-27T22:46:19.504Z,9.30
2022-09-27T22:48:46.497Z,9.20
2022-09-27T22:51:13.311Z,9.20
2022-09-27T22:53:40.208Z,9.10
2022-09-27T22:56:12.534Z,9.20
2022-09-27T22:58:39.235Z,9.20
2022-09-27T23:01:09.666Z,9.20
2022-09-27T23:03:37.150Z,9.20
2022-09-27T23:06:04.780Z,9.20
2022-09-27T23:08:36.391Z,9.10
2022-09-27T23:11:14.530Z,9.10
2022-09-27T23:13:43.776Z,9.20
2022-09-27T23:16:13.705Z,9.10
2022-09-27T23:18:40.859Z,9.10
2022-09-27T23:21:10.259Z,9.10
2022-09-27T23:23:41.933Z,9.10
2022-09-27T23:26:11.078Z,9.10
2022-09-27T23:28:38.621Z,9.20
2022-09-27T23:31:08.378Z,9.20
2022-09-27T23:33:40.560Z,9.10
2022-09-27T23:36:10.535Z,9.10
2022-09-27T23:38:40.165Z,9.20
2022-09-27T23:41:08.198Z,9.20
2022-09-27T23:43:36.219Z,9.20
2022-09-27T23:46:05.443Z,9.10
2022-09-27T23:48:34.643Z,9.10
2022-09-27T23:51:02.151Z,9.20
2022-09-27T23:53:28.918Z,9.20
2022-09-27T23:55:59.622Z,9.10
2022-09-27T23:58:26.358Z,9.10
